TimeEST,TemperatureF,Dew PointF,Humidity,Sea Level PressureIn,VisibilityMPH,Wind Direction,Wind SpeedMPH,Gust SpeedMPH,PrecipitationIn,Events,Conditions,WindDirDegrees,DateUTC
12:03 AM,41.0,39.2,93,30.40,0.5,Calm,Calm,-,N/A,Fog,Fog,0,2013-01-09 05:03:00
12:34 AM,42.8,39.2,87,30.40,0.5,Calm,Calm,-,N/A,Fog,Fog,0,2013-01-09 05:34:00
12:39 AM,42.8,41.0,93,30.40,1.0,Calm,Calm,-,N/A,,Clear,0,2013-01-09 05:39:00
12:48 AM,41.0,39.2,93,30.39,3.0,Calm,Calm,-,N/A,,Clear,0,2013-01-09 05:48:00
12:54 AM,42.8,39.2,87,30.39,1.5,Calm,Calm,-,N/A,,Clear,0,2013-01-09 05:54:00
1:00 AM,41.0,39.2,93,30.40,0.5,Calm,Calm,-,N/A,Fog,Fog,0,2013-01-09 06:00:00
1:31 AM,42.8,39.2,87,30.39,1.0,Calm,Calm,-,N/A,,Clear,0,2013-01-09 06:31:00
1:35 AM,42.8,39.2,87,30.38,4.0,Calm,Calm,-,N/A,,Clear,0,2013-01-09 06:35:00
1:43 AM,41.0,39.2,93,30.38,1.0,Calm,Calm,-,N/A,,Mist,0,2013-01-09 06:43:00
1:47 AM,41.0,39.2,93,30.38,0.5,Calm,Calm,-,N/A,Fog,Fog,0,2013-01-09 06:47:00
1:54 AM,41.0,39.0,93,30.38,0.5,Calm,Calm,-,N/A,Fog,Fog,0,2013-01-09 06:54:00
2:32 AM,41.0,39.2,93,30.38,0.5,Calm,Calm,-,N/A,Fog,Fog,0,2013-01-09 07:32:00
2:40 AM,41.0,39.2,93,30.38,1.0,Calm,Calm,-,N/A,,Mist,0,2013-01-09 07:40:00
2:43 AM,41.0,39.2,93,30.38,2.5,Calm,Calm,-,N/A,,Partly Cloudy,0,2013-01-09 07:43:00
2:50 AM,39.2,39.2,100,30.38,8.0,Calm,Calm,-,N/A,,Partly Cloudy,0,2013-01-09 07:50:00
2:54 AM,39.9,39.0,97,30.38,8.0,Calm,Calm,-,N/A,,Clear,0,2013-01-09 07:54:00
3:28 AM,39.2,39.2,100,30.38,1.5,Calm,Calm,-,N/A,,Clear,0,2013-01-09 08:28:00
3:38 AM,39.2,37.4,93,30.39,0.5,Calm,Calm,-,N/A,Fog,Fog,0,2013-01-09 08:38:00
3:46 AM,39.2,37.4,93,30.39,0.8,Calm,Calm,-,N/A,,Clear,0,2013-01-09 08:46:00
3:52 AM,41.0,39.2,93,30.39,2.0,Calm,Calm,-,N/A,,Clear,0,2013-01-09 08:52:00
3:53 AM,41.0,39.0,93,30.39,2.5,Calm,Calm,-,N/A,,Clear,0,2013-01-09 08:53:00
4:04 AM,39.2,39.2,100,30.40,1.2,Calm,Calm,-,N/A,,Clear,0,2013-01-09 09:04:00
4:10 AM,39.2,39.2,100,30.40,3.0,Calm,Calm,-,N/A,,Clear,0,2013-01-09 09:10:00
4:16 AM,39.2,37.4,93,30.39,1.8,Calm,Calm,-,N/A,,Clear,0,2013-01-09 09:16:00
4:33 AM,39.2,39.2,100,30.39,3.0,Calm,Calm,-,N/A,,Partly Cloudy,0,2013-01-09 09:33:00
4:54 AM,41.0,39.0,93,30.39,10.0,Calm,Calm,-,N/A,,Partly Cloudy,0,2013-01-09 09:54:00
5:54 AM,42.1,41.0,96,30.39,10.0,Calm,Calm,-,N/A,,Mostly Cloudy,0,2013-01-09 10:54:00
6:54 AM,46.0,44.1,93,30.41,8.0,Calm,Calm,-,N/A,,Overcast,0,2013-01-09 11:54:00
7:54 AM,48.0,46.0,93,30.43,7.0,Calm,Calm,-,N/A,,Overcast,0,2013-01-09 12:54:00
8:54 AM,48.9,46.0,90,30.45,7.0,Calm,Calm,-,N/A,,Overcast,0,2013-01-09 13:54:00
9:54 AM,51.1,48.0,89,30.44,7.0,Calm,Calm,-,N/A,,Partly Cloudy,0,2013-01-09 14:54:00
10:54 AM,57.9,51.1,78,30.43,10.0,Calm,Calm,-,N/A,,Overcast,0,2013-01-09 15:54:00
11:54 AM,64.9,51.1,61,30.40,10.0,East,3.5,-,N/A,,Partly Cloudy,100,2013-01-09 16:54:00
12:54 PM,69.1,52.0,54,30.38,10.0,Calm,Calm,-,N/A,,Overcast,0,2013-01-09 17:54:00
1:54 PM,71.1,53.1,53,30.37,10.0,Calm,Calm,-,N/A,,Mostly Cloudy,0,2013-01-09 18:54:00
2:54 PM,73.0,54.0,51,30.37,10.0,Calm,Calm,-,N/A,,Clear,0,2013-01-09 19:54:00
3:54 PM,68.0,55.0,63,30.37,10.0,Calm,Calm,-,N/A,,Clear,0,2013-01-09 20:54:00
4:54 PM,64.0,55.0,73,30.39,10.0,Calm,Calm,-,N/A,,Clear,0,2013-01-09 21:54:00
5:54 PM,60.1,55.0,83,30.38,10.0,Calm,Calm,-,N/A,,Clear,0,2013-01-09 22:54:00
6:54 PM,59.0,55.0,87,30.40,10.0,Calm,Calm,-,N/A,,Mostly Cloudy,0,2013-01-09 23:54:00
7:54 PM,57.0,53.1,87,30.38,10.0,SSE,3.5,-,0.00,,Clear,150,2013-01-10 00:54:00
8:54 PM,55.9,53.1,90,30.37,10.0,SSW,3.5,-,N/A,,Clear,210,2013-01-10 01:54:00
9:54 PM,55.9,52.0,87,30.39,10.0,Calm,Calm,-,N/A,,Clear,0,2013-01-10 02:54:00
10:54 PM,55.0,53.1,93,30.41,10.0,Calm,Calm,-,N/A,,Clear,0,2013-01-10 03:54:00
11:38 PM,51.8,48.2,88,30.41,1.5,Calm,Calm,-,N/A,,Clear,0,2013-01-10 04:38:00
11:50 PM,50.0,48.2,94,30.41,0.8,Calm,Calm,-,N/A,,Clear,0,2013-01-10 04:50:00
11:54 PM,51.1,48.9,92,30.41,1.5,Calm,Calm,-,N/A,,Clear,0,2013-01-10 04:54:00
11:56 PM,51.8,50.0,94,30.41,3.0,Calm,Calm,-,N/A,,Clear,0,2013-01-10 04:56:00